RJDT

Details ICAO RJDT (TSJ)
Name TSUSHIMA
Region Japan
Timezone Asia/Tokyo (UTC+9.0)
Plans Departing 8
Arriving 9
Stats Elevation 213 ft / 65 m (AMSL)
Location 34.284889° 129.330550°
Runways 1
Magnetic Variation 7.657° W
Sunrise 2018-05-24 20:16:16 UTC / 2018-05-25 05:16:16 Local
Sunset 2018-05-25 10:25:46 UTC / 2018-05-25 19:25:46 Local
Advertisement - Login to hide

Runways

ID Width Length Bearing (true) Bearing (mag) Surface Threshold Offset Overrun Length
14 150 ft / 46 m 6,237 ft / 1,901 m 136.16° 143.82° Asphalt 0 ft / 0 m 200 ft / 61 m
32 150 ft / 46 m 6,237 ft / 1,901 m 316.16° 323.82° Asphalt 0 ft / 0 m 200 ft / 61 m

Map

Weather


0- 5 10 15 20 25 30 35+ Temperature / ° C

Clouds and Precipitation
Forecast for 2018-05-25 00:00 UTC. Updated 26 minutes ago

Ground ~20,000 ft ~40,000 ft Winds

METAR

RJDT 242300Z 32003KT 250V030 CAVOK 22/12 Q1009

TAF

Not found
Warning: Do not use this data for real-world aviation or navigation. No guarantee of current accuracy is given.